Time;durP1;ratioP1;P1;durP2;ratioP2;P2;SDS_P1;SDS_P2;PMS_P1;PMS_P2;Temp;Humidity;BMP_temperature;BMP_pressure;BME280_temperature;BME280_humidity;BME280_pressure;Samples;Min_cycle;Max_cycle;Signal;HPM_P1;HPM_P2
2022/06/17 00:02:10;;;;;;;5.50;5.00;;;;;;;;;;5134350;28;20438;-69
2022/06/17 00:04:38;;;;;;;4.93;4.30;;;;;;;;;;5134293;28;20477;-68
2022/06/17 00:07:06;;;;;;;5.80;4.00;;;;;;;;;;5133970;28;20852;-68
2022/06/17 00:09:35;;;;;;;5.67;5.07;;;;;;;;;;5133765;28;20474;-68
2022/06/17 00:12:02;;;;;;;5.53;4.97;;;;;;;;;;5133575;28;20988;-68
2022/06/17 00:14:32;;;;;;;5.00;4.57;;;;;;;;;;5134063;28;20506;-68
2022/06/17 00:17:02;;;;;;;7.23;4.90;;;;;;;;;;5133931;28;20446;-68
2022/06/17 00:19:29;;;;;;;4.73;4.33;;;;;;;;;;5133950;28;20441;-68
2022/06/17 00:21:57;;;;;;;7.53;5.00;;;;;;;;;;5133817;28;20447;-68
2022/06/17 00:24:26;;;;;;;4.57;4.27;;;;;;;;;;5133582;28;20483;-68
2022/06/17 00:26:54;;;;;;;5.80;5.23;;;;;;;;;;5133899;27;20837;-68
2022/06/17 00:29:23;;;;;;;5.20;4.70;;;;;;;;;;5136664;27;20800;-68
2022/06/17 00:31:50;;;;;;;10.90;6.30;;;;;;;;;;5137328;27;20500;-68
2022/06/17 00:34:19;;;;;;;12.13;6.00;;;;;;;;;;5137784;27;20502;-68
2022/06/17 00:36:46;;;;;;;8.70;6.17;;;;;;;;;;5137323;27;20442;-68
2022/06/17 00:39:14;;;;;;;7.93;6.93;;;;;;;;;;5137370;27;20532;-68
2022/06/17 00:41:43;;;;;;;9.27;7.37;;;;;;;;;;5136889;27;20450;-68
2022/06/17 00:44:19;;;;;;;7.83;6.60;;;;;;;;;;5137229;27;20457;-68
2022/06/17 00:46:48;;;;;;;7.10;5.90;;;;;;;;;;5137159;27;20471;-68
2022/06/17 00:49:19;;;;;;;9.40;7.80;;;;;;;;;;5137297;27;20474;-68
2022/06/17 00:51:56;;;;;;;6.97;6.27;;;;;;;;;;5137252;27;20462;-68
2022/06/17 00:54:25;;;;;;;7.97;6.87;;;;;;;;;;5137069;27;20919;-68
2022/06/17 00:56:52;;;;;;;7.03;6.43;;;;;;;;;;5137124;27;20525;-68
2022/06/17 00:59:20;;;;;;;6.70;6.10;;;;;;;;;;5136717;27;20440;-68
2022/06/17 01:01:50;;;;;;;10.33;6.80;;;;;;;;;;5136592;27;20938;-68
2022/06/17 01:04:19;;;;;;;9.90;6.23;;;;;;;;;;5137778;27;20444;-68
2022/06/17 01:06:51;;;;;;;9.50;6.00;;;;;;;;;;5136778;27;20857;-68
2022/06/17 01:12:09;;;;;;;7.00;6.40;;;;;;;;;;5136524;27;21035;-68
2022/06/17 01:14:36;;;;;;;8.50;6.20;;;;;;;;;;5136649;27;20911;-68
2022/06/17 01:17:04;;;;;;;7.07;5.70;;;;;;;;;;5136073;27;20470;-69
2022/06/17 01:19:34;;;;;;;7.10;6.50;;;;;;;;;;5136614;27;20800;-68
2022/06/17 01:22:14;;;;;;;6.40;5.80;;;;;;;;;;5136562;27;20531;-68
2022/06/17 01:24:42;;;;;;;7.40;5.80;;;;;;;;;;5136278;27;20465;-68
2022/06/17 01:27:10;;;;;;;10.43;7.00;;;;;;;;;;5136370;27;20446;-68
2022/06/17 01:29:38;;;;;;;10.93;6.40;;;;;;;;;;5136705;27;20536;-68
2022/06/17 01:32:06;;;;;;;6.50;5.87;;;;;;;;;;5136244;27;20562;-67
2022/06/17 01:34:33;;;;;;;7.23;5.67;;;;;;;;;;5136460;27;20788;-68
2022/06/17 01:37:01;;;;;;;6.60;5.53;;;;;;;;;;5136221;27;20802;-68
2022/06/17 01:39:28;;;;;;;6.37;5.70;;;;;;;;;;5135752;27;20464;-68
2022/06/17 01:41:57;;;;;;;7.27;6.43;;;;;;;;;;5136188;27;20811;-68
2022/06/17 01:44:26;;;;;;;7.23;5.50;;;;;;;;;;5136078;27;20491;-67
2022/06/17 01:46:55;;;;;;;7.07;6.30;;;;;;;;;;5135600;27;20829;-68
2022/06/17 01:49:24;;;;;;;6.37;5.77;;;;;;;;;;5135754;27;20504;-67
2022/06/17 01:51:54;;;;;;;8.87;6.23;;;;;;;;;;5135947;27;20821;-68
2022/06/17 01:54:25;;;;;;;8.03;6.47;;;;;;;;;;5135713;27;20458;-69
2022/06/17 01:56:53;;;;;;;6.97;6.27;;;;;;;;;;5136062;27;20436;-68
2022/06/17 01:59:23;;;;;;;8.60;5.97;;;;;;;;;;5135870;27;20847;-68
2022/06/17 02:01:53;;;;;;;7.53;5.77;;;;;;;;;;5135777;27;20496;-67
2022/06/17 02:04:23;;;;;;;7.03;5.80;;;;;;;;;;5135961;27;20522;-68
2022/06/17 02:06:54;;;;;;;6.70;6.10;;;;;;;;;;5135268;27;20943;-68
2022/06/17 02:09:21;;;;;;;7.47;6.77;;;;;;;;;;5135830;27;20442;-68
2022/06/17 02:11:49;;;;;;;6.13;5.63;;;;;;;;;;5135670;27;20511;-68
2022/06/17 02:14:16;;;;;;;6.23;5.67;;;;;;;;;;5136003;27;20840;-67
2022/06/17 02:16:47;;;;;;;6.93;6.23;;;;;;;;;;5135392;27;20546;-68
2022/06/17 02:19:14;;;;;;;7.47;6.10;;;;;;;;;;5135391;27;20527;-67
2022/06/17 02:21:46;;;;;;;7.37;6.03;;;;;;;;;;5135375;27;20471;-67
2022/06/17 02:24:13;;;;;;;7.27;6.57;;;;;;;;;;5135715;27;20797;-67
2022/06/17 02:26:42;;;;;;;8.83;6.60;;;;;;;;;;5134907;27;20440;-68
2022/06/17 02:29:11;;;;;;;6.90;6.27;;;;;;;;;;5135267;27;20541;-67
2022/06/17 02:31:39;;;;;;;7.93;5.40;;;;;;;;;;5135019;27;20566;-68
2022/06/17 02:34:08;;;;;;;8.43;7.00;;;;;;;;;;5135355;27;20438;-67
2022/06/17 02:36:38;;;;;;;6.90;6.10;;;;;;;;;;5135513;27;20438;-68
2022/06/17 02:39:06;;;;;;;6.50;5.80;;;;;;;;;;5134816;27;20521;-68
2022/06/17 02:41:33;;;;;;;7.30;6.60;;;;;;;;;;5135036;27;20531;-69
2022/06/17 02:44:03;;;;;;;6.90;6.20;;;;;;;;;;5134599;27;20446;-67
2022/06/17 02:46:31;;;;;;;6.37;5.77;;;;;;;;;;5134669;27;20442;-67
2022/06/17 02:48:59;;;;;;;10.33;7.10;;;;;;;;;;5134933;27;20448;-67
2022/06/17 02:51:30;;;;;;;6.40;5.80;;;;;;;;;;5134275;27;20517;-68
2022/06/17 02:53:58;;;;;;;7.30;6.60;;;;;;;;;;5134839;27;20444;-68
2022/06/17 02:56:26;;;;;;;7.03;6.00;;;;;;;;;;5134518;27;20447;-68
2022/06/17 02:59:03;;;;;;;7.73;6.90;;;;;;;;;;5134851;27;20862;-68
2022/06/17 03:01:32;;;;;;;7.63;6.80;;;;;;;;;;5135167;27;20433;-67
2022/06/17 03:04:00;;;;;;;9.67;6.90;;;;;;;;;;5134289;27;20450;-68
2022/06/17 03:06:30;;;;;;;7.07;6.40;;;;;;;;;;5135081;27;20443;-68
2022/06/17 03:09:00;;;;;;;10.30;6.53;;;;;;;;;;5134497;27;20436;-68
2022/06/17 03:11:27;;;;;;;9.97;6.60;;;;;;;;;;5134351;27;20531;-68
2022/06/17 03:13:56;;;;;;;7.20;6.50;;;;;;;;;;5134541;27;20521;-68
2022/06/17 03:16:24;;;;;;;7.10;6.40;;;;;;;;;;5134305;28;20438;-68
2022/06/17 03:18:53;;;;;;;8.97;6.87;;;;;;;;;;5134085;28;20541;-68
2022/06/17 03:21:23;;;;;;;7.97;5.97;;;;;;;;;;5134229;28;20520;-68
2022/06/17 03:23:53;;;;;;;7.70;7.00;;;;;;;;;;5134423;28;20435;-68
2022/06/17 03:26:23;;;;;;;7.77;7.07;;;;;;;;;;5134903;28;20774;-68
2022/06/17 03:28:52;;;;;;;7.10;6.40;;;;;;;;;;5134609;28;20467;-68
2022/06/17 03:31:22;;;;;;;8.07;6.67;;;;;;;;;;5134829;28;20807;-68
2022/06/17 03:33:51;;;;;;;8.23;6.93;;;;;;;;;;5134364;28;20498;-68
2022/06/17 03:36:23;;;;;;;7.73;6.87;;;;;;;;;;5134365;28;20532;-68
2022/06/17 03:38:55;;;;;;;7.40;6.80;;;;;;;;;;5134623;28;20506;-66
2022/06/17 03:41:25;;;;;;;7.77;7.07;;;;;;;;;;5134725;28;20435;-67
2022/06/17 03:43:55;;;;;;;9.50;6.90;;;;;;;;;;5134270;28;20469;-65
2022/06/17 03:46:24;;;;;;;8.20;7.37;;;;;;;;;;5134039;28;20458;-65
2022/06/17 03:48:54;;;;;;;11.70;7.67;;;;;;;;;;5133844;28;20456;-68
2022/06/17 03:51:22;;;;;;;8.13;6.97;;;;;;;;;;5134191;28;20440;-68
2022/06/17 03:53:50;;;;;;;9.40;7.10;;;;;;;;;;5134093;28;20476;-68
2022/06/17 03:56:21;;;;;;;8.97;7.70;;;;;;;;;;5133914;28;20524;-68
2022/06/17 03:58:48;;;;;;;14.00;6.97;;;;;;;;;;5132891;28;20436;-68
2022/06/17 04:01:17;;;;;;;8.77;7.90;;;;;;;;;;5132755;28;20947;-67
2022/06/17 04:03:46;;;;;;;9.10;8.20;;;;;;;;;;5136589;27;20919;-67
2022/06/17 04:06:15;;;;;;;11.93;7.40;;;;;;;;;;5136787;27;20449;-68
2022/06/17 04:08:53;;;;;;;9.40;8.27;;;;;;;;;;5137297;27;20533;-67
2022/06/17 04:11:22;;;;;;;8.50;7.70;;;;;;;;;;5137090;27;20490;-67
2022/06/17 04:13:50;;;;;;;9.77;8.40;;;;;;;;;;5137777;27;20481;-68
2022/06/17 04:16:19;;;;;;;10.37;7.60;;;;;;;;;;5137366;27;20434;-67
2022/06/17 04:18:46;;;;;;;10.83;8.27;;;;;;;;;;5137999;27;20862;-67
2022/06/17 04:21:13;;;;;;;14.70;8.90;;;;;;;;;;5137849;27;20525;-68
2022/06/17 04:23:41;;;;;;;13.00;9.10;;;;;;;;;;5137734;27;20442;-67
2022/06/17 04:26:12;;;;;;;9.67;7.97;;;;;;;;;;5137398;27;20524;-67
2022/06/17 04:28:49;;;;;;;8.83;7.93;;;;;;;;;;5136921;27;20987;-67
2022/06/17 04:31:18;;;;;;;11.40;8.90;;;;;;;;;;5137659;27;20772;-67
2022/06/17 04:33:47;;;;;;;10.13;8.30;;;;;;;;;;5136866;27;20528;-67
2022/06/17 04:36:16;;;;;;;9.13;8.33;;;;;;;;;;5137081;27;20465;-67
2022/06/17 04:38:53;;;;;;;10.10;8.43;;;;;;;;;;5136865;27;20525;-67
2022/06/17 04:41:22;;;;;;;10.67;8.97;;;;;;;;;;5137833;27;20430;-67
2022/06/17 04:43:52;;;;;;;11.77;8.27;;;;;;;;;;5137124;27;20536;-67
2022/06/17 04:46:21;;;;;;;11.50;8.17;;;;;;;;;;5136752;27;20423;-67
2022/06/17 04:48:49;;;;;;;11.77;8.40;;;;;;;;;;5137039;27;20556;-67
2022/06/17 04:51:16;;;;;;;9.90;7.40;;;;;;;;;;5136517;27;20466;-67
2022/06/17 04:53:45;;;;;;;8.37;7.60;;;;;;;;;;5136470;27;21002;-67
2022/06/17 04:56:17;;;;;;;9.83;7.17;;;;;;;;;;5136622;27;20857;-67
2022/06/17 04:58:44;;;;;;;9.43;6.97;;;;;;;;;;5136501;27;20526;-67
2022/06/17 05:01:16;;;;;;;7.33;6.73;;;;;;;;;;5136570;27;20440;-67
2022/06/17 05:03:43;;;;;;;7.90;7.10;;;;;;;;;;5137194;27;20439;-67
2022/06/17 05:06:11;;;;;;;9.13;7.20;;;;;;;;;;5136697;27;20867;-68
2022/06/17 05:08:41;;;;;;;7.17;6.57;;;;;;;;;;5136181;27;20449;-68
2022/06/17 05:11:10;;;;;;;8.37;6.60;;;;;;;;;;5136471;27;20460;-67
2022/06/17 05:13:39;;;;;;;8.37;6.30;;;;;;;;;;5135346;27;20482;-67
2022/06/17 05:16:12;;;;;;;8.67;6.23;;;;;;;;;;5136095;27;20807;-68
2022/06/17 05:18:40;;;;;;;8.00;6.73;;;;;;;;;;5136298;27;20460;-67
2022/06/17 05:21:08;;;;;;;8.77;6.33;;;;;;;;;;5136100;27;20473;-67
2022/06/17 05:23:35;;;;;;;7.63;6.90;;;;;;;;;;5136119;27;20451;-67
2022/06/17 05:26:02;;;;;;;8.70;6.83;;;;;;;;;;5136388;27;20477;-71
2022/06/17 05:28:30;;;;;;;6.93;6.33;;;;;;;;;;5135990;27;20494;-69
2022/06/17 05:30:58;;;;;;;8.53;6.90;;;;;;;;;;5135740;27;20438;-67
2022/06/17 05:33:25;;;;;;;11.73;8.03;;;;;;;;;;5135946;27;20570;-70
2022/06/17 05:35:53;;;;;;;7.53;6.43;;;;;;;;;;5135404;27;20971;-69
2022/06/17 05:38:21;;;;;;;8.23;6.03;;;;;;;;;;5135675;27;20486;-70
2022/06/17 05:40:48;;;;;;;6.67;6.07;;;;;;;;;;5136117;27;20440;-69
2022/06/17 05:43:15;;;;;;;9.13;6.20;;;;;;;;;;5136294;27;20432;-68
2022/06/17 05:45:42;;;;;;;8.80;6.87;;;;;;;;;;5135518;27;20524;-68
2022/06/17 05:48:10;;;;;;;7.37;6.73;;;;;;;;;;5135908;27;20491;-67
2022/06/17 05:50:37;;;;;;;10.03;6.40;;;;;;;;;;5136017;27;20508;-67
2022/06/17 05:53:07;;;;;;;9.50;5.87;;;;;;;;;;5135911;27;20559;-68
2022/06/17 05:55:36;;;;;;;6.80;5.17;;;;;;;;;;5136333;27;20432;-67
2022/06/17 05:58:04;;;;;;;6.10;5.50;;;;;;;;;;5136191;27;20478;-67
2022/06/17 06:00:31;;;;;;;6.77;5.60;;;;;;;;;;5135405;27;21009;-67
2022/06/17 06:02:59;;;;;;;8.87;5.93;;;;;;;;;;5135728;27;20490;-67
2022/06/17 06:05:28;;;;;;;9.00;5.30;;;;;;;;;;5135602;27;20441;-68
2022/06/17 06:07:55;;;;;;;8.83;5.17;;;;;;;;;;5135333;27;20514;-68
2022/06/17 06:10:25;;;;;;;5.57;5.00;;;;;;;;;;5135451;27;20492;-67
2022/06/17 06:12:57;;;;;;;8.67;5.07;;;;;;;;;;5135381;27;20476;-68
2022/06/17 06:15:25;;;;;;;7.63;5.10;;;;;;;;;;5135479;27;20428;-68
2022/06/17 06:17:52;;;;;;;5.30;4.80;;;;;;;;;;5135741;27;20551;-68
2022/06/17 06:20:20;;;;;;;6.60;4.70;;;;;;;;;;5134908;27;20525;-68
2022/06/17 06:22:47;;;;;;;5.47;4.93;;;;;;;;;;5135224;27;20455;-67
2022/06/17 06:25:15;;;;;;;4.90;4.50;;;;;;;;;;5135141;27;20541;-68
2022/06/17 06:27:44;;;;;;;4.13;3.83;;;;;;;;;;5135525;27;20532;-68
2022/06/17 06:30:17;;;;;;;5.00;4.60;;;;;;;;;;5135401;27;20432;-67
2022/06/17 06:32:48;;;;;;;5.27;4.30;;;;;;;;;;5135554;27;20468;-67
2022/06/17 06:35:15;;;;;;;4.73;4.23;;;;;;;;;;5135203;27;20432;-67
2022/06/17 06:37:42;;;;;;;9.40;4.17;;;;;;;;;;5135419;27;20459;-68
2022/06/17 06:40:10;;;;;;;7.43;3.97;;;;;;;;;;5135110;27;20444;-68
2022/06/17 06:42:38;;;;;;;6.00;4.30;;;;;;;;;;5135214;27;20473;-67
2022/06/17 06:45:07;;;;;;;4.93;4.40;;;;;;;;;;5134707;27;20527;-67
2022/06/17 06:47:34;;;;;;;5.50;4.43;;;;;;;;;;5135017;27;20532;-67
2022/06/17 06:50:02;;;;;;;5.37;4.90;;;;;;;;;;5134800;27;21059;-67
2022/06/17 06:52:29;;;;;;;5.47;4.30;;;;;;;;;;5134757;27;20445;-67
2022/06/17 06:54:56;;;;;;;10.43;4.33;;;;;;;;;;5134712;27;20532;-68
2022/06/17 06:57:23;;;;;;;5.53;5.03;;;;;;;;;;5134802;27;20480;-66
2022/06/17 06:59:50;;;;;;;5.80;4.67;;;;;;;;;;5134396;27;20473;-67
2022/06/17 07:02:19;;;;;;;9.70;5.10;;;;;;;;;;5133153;27;20445;-67
2022/06/17 07:04:46;;;;;;;8.83;5.43;;;;;;;;;;5134295;27;20456;-68
2022/06/17 07:07:14;;;;;;;16.03;4.70;;;;;;;;;;5134164;27;20934;-67
2022/06/17 07:09:41;;;;;;;5.97;5.40;;;;;;;;;;5134158;27;20923;-67
2022/06/17 07:12:09;;;;;;;5.10;4.60;;;;;;;;;;5134239;27;20498;-67
2022/06/17 07:14:36;;;;;;;5.90;5.27;;;;;;;;;;5134413;27;20561;-67
2022/06/17 07:17:03;;;;;;;5.40;4.90;;;;;;;;;;5133974;27;20998;-67
2022/06/17 07:19:32;;;;;;;4.87;4.00;;;;;;;;;;5134473;28;20520;-67
2022/06/17 07:21:59;;;;;;;7.03;5.30;;;;;;;;;;5134199;28;20820;-67
2022/06/17 07:24:26;;;;;;;4.80;4.40;;;;;;;;;;5133786;28;20528;-67
2022/06/17 07:26:54;;;;;;;10.93;5.20;;;;;;;;;;5134604;28;20440;-68
2022/06/17 07:29:21;;;;;;;6.07;5.10;;;;;;;;;;5134138;28;20444;-67
2022/06/17 07:31:48;;;;;;;5.10;4.70;;;;;;;;;;5134016;28;20445;-67
2022/06/17 07:34:16;;;;;;;9.87;4.37;;;;;;;;;;5133829;28;20495;-67
2022/06/17 07:42:14;;;;;;;6.80;4.73;;;;;;;;;;5138353;27;20401;-67
2022/06/17 07:44:41;;;;;;;4.73;4.43;;;;;;;;;;5137876;27;20442;-67
2022/06/17 07:47:14;;;;;;;7.13;4.77;;;;;;;;;;5137812;27;20537;-67
2022/06/17 07:49:41;;;;;;;5.47;4.83;;;;;;;;;;5138027;27;20469;-68
2022/06/17 07:52:10;;;;;;;5.73;5.23;;;;;;;;;;5137775;27;20442;-67
2022/06/17 07:54:38;;;;;;;8.00;7.07;;;;;;;;;;5138155;27;20569;-67
2022/06/17 07:57:05;;;;;;;10.40;5.77;;;;;;;;;;5137822;27;20520;-68
2022/06/17 07:59:33;;;;;;;10.50;4.73;;;;;;;;;;5138005;27;20452;-68
2022/06/17 08:02:00;;;;;;;6.53;5.00;;;;;;;;;;5137679;27;20449;-68
2022/06/17 08:04:27;;;;;;;9.60;5.13;;;;;;;;;;5137515;27;20446;-68
2022/06/17 08:06:55;;;;;;;6.50;5.40;;;;;;;;;;5137866;27;20477;-68
2022/06/17 08:09:24;;;;;;;7.63;5.30;;;;;;;;;;5137374;27;20442;-68
2022/06/17 08:11:51;;;;;;;5.40;4.87;;;;;;;;;;5137546;27;20533;-68
2022/06/17 08:14:18;;;;;;;6.57;4.40;;;;;;;;;;5137671;27;20473;-68
2022/06/17 08:16:46;;;;;;;5.03;4.60;;;;;;;;;;5137169;27;20437;-68
2022/06/17 08:19:15;;;;;;;7.40;4.90;;;;;;;;;;5137759;27;20528;-68
2022/06/17 08:21:43;;;;;;;4.93;4.53;;;;;;;;;;5137379;27;20444;-68
2022/06/17 08:24:10;;;;;;;6.20;4.70;;;;;;;;;;5137173;27;20454;-68
2022/06/17 08:26:38;;;;;;;6.73;4.50;;;;;;;;;;5137544;27;20533;-68
2022/06/17 08:29:06;;;;;;;5.13;4.30;;;;;;;;;;5136537;27;20442;-68
2022/06/17 08:31:33;;;;;;;4.77;4.37;;;;;;;;;;5137246;27;20444;-68
2022/06/17 08:34:00;;;;;;;8.93;4.80;;;;;;;;;;5136876;27;20557;-67
2022/06/17 08:36:28;;;;;;;5.17;4.30;;;;;;;;;;5137312;27;20444;-68
2022/06/17 08:38:58;;;;;;;4.63;4.13;;;;;;;;;;5136955;27;20438;-68
2022/06/17 08:41:26;;;;;;;5.10;4.60;;;;;;;;;;5137499;27;20507;-68
2022/06/17 08:44:00;;;;;;;7.53;5.10;;;;;;;;;;5136624;27;20935;-67
2022/06/17 08:46:36;;;;;;;7.33;5.60;;;;;;;;;;5137480;27;20529;-67
2022/06/17 08:49:14;;;;;;;6.87;4.70;;;;;;;;;;5135247;27;20454;-68
2022/06/17 08:51:51;;;;;;;4.60;3.87;;;;;;;;;;5137107;27;20512;-67
2022/06/17 08:54:22;;;;;;;5.10;4.13;;;;;;;;;;5136742;27;20548;-68
2022/06/17 08:56:55;;;;;;;5.53;3.80;;;;;;;;;;5137070;27;20446;-68
2022/06/17 08:59:37;;;;;;;3.97;3.67;;;;;;;;;;5137000;27;20459;-68
2022/06/17 09:02:10;;;;;;;4.43;3.63;;;;;;;;;;5133932;27;20454;-68
2022/06/17 09:04:44;;;;;;;4.47;4.00;;;;;;;;;;5136630;27;20442;-68
2022/06/17 09:07:18;;;;;;;3.87;3.47;;;;;;;;;;5135781;27;20431;-70
2022/06/17 09:09:55;;;;;;;6.27;4.10;;;;;;;;;;5135566;27;20426;-68
2022/06/17 09:12:26;;;;;;;3.53;3.23;;;;;;;;;;5136384;27;20521;-69
2022/06/17 09:15:08;;;;;;;3.40;3.10;;;;;;;;;;5136937;27;20562;-68
2022/06/17 09:17:42;;;;;;;4.93;3.40;;;;;;;;;;5136119;27;20446;-68
2022/06/17 09:20:12;;;;;;;6.83;3.90;;;;;;;;;;5136344;27;20921;-68
2022/06/17 09:22:42;;;;;;;3.23;3.00;;;;;;;;;;5136354;27;20513;-68
2022/06/17 09:25:10;;;;;;;5.40;3.43;;;;;;;;;;5136621;27;20791;-68
2022/06/17 09:27:39;;;;;;;3.90;3.43;;;;;;;;;;5135723;27;20443;-68
2022/06/17 09:30:11;;;;;;;5.13;3.50;;;;;;;;;;5135853;27;20438;-68
2022/06/17 09:32:42;;;;;;;4.70;3.80;;;;;;;;;;5136380;27;20514;-68
2022/06/17 09:35:13;;;;;;;6.03;4.00;;;;;;;;;;5136293;27;20551;-68
2022/06/17 09:37:44;;;;;;;5.00;3.50;;;;;;;;;;5136150;27;20484;-68
2022/06/17 09:40:15;;;;;;;4.70;3.20;;;;;;;;;;5136644;27;20457;-67
2022/06/17 09:42:44;;;;;;;3.63;3.33;;;;;;;;;;5136221;27;20951;-67
2022/06/17 09:45:13;;;;;;;4.80;3.67;;;;;;;;;;5135770;27;20496;-67
2022/06/17 09:47:45;;;;;;;6.37;3.53;;;;;;;;;;5135773;27;20976;-67
2022/06/17 09:50:15;;;;;;;6.23;5.23;;;;;;;;;;5136426;27;20479;-68
2022/06/17 09:52:45;;;;;;;3.47;3.10;;;;;;;;;;5135953;27;20840;-68
2022/06/17 09:55:16;;;;;;;3.67;3.37;;;;;;;;;;5135889;27;20528;-68
2022/06/17 09:57:45;;;;;;;2.90;2.70;;;;;;;;;;5135843;27;20523;-69
2022/06/17 10:00:14;;;;;;;3.77;3.00;;;;;;;;;;5135484;27;20475;-68
2022/06/17 10:02:45;;;;;;;4.50;3.03;;;;;;;;;;5135411;27;20441;-68
2022/06/17 10:05:14;;;;;;;10.03;3.67;;;;;;;;;;5135528;27;20479;-68
2022/06/17 10:07:45;;;;;;;5.43;3.43;;;;;;;;;;5135594;27;20973;-68
2022/06/17 10:10:18;;;;;;;6.23;3.00;;;;;;;;;;5136221;27;20829;-67
2022/06/17 10:12:52;;;;;;;3.87;3.00;;;;;;;;;;5135746;27;20439;-68
2022/06/17 10:15:26;;;;;;;9.23;3.90;;;;;;;;;;5135704;27;20550;-69
2022/06/17 10:20:51;;;;;;;5.87;2.77;;;;;;;;;;5135377;27;20392;-67
2022/06/17 10:23:24;;;;;;;4.30;2.87;;;;;;;;;;5135400;27;20851;-67
2022/06/17 10:25:57;;;;;;;3.33;3.13;;;;;;;;;;5135946;27;20829;-67
2022/06/17 10:28:33;;;;;;;3.73;2.43;;;;;;;;;;5135396;27;20531;-67
2022/06/17 10:31:03;;;;;;;3.90;3.00;;;;;;;;;;5132474;27;20461;-67
2022/06/17 10:33:33;;;;;;;3.50;2.70;;;;;;;;;;5135158;27;20488;-68
2022/06/17 10:36:01;;;;;;;3.13;2.70;;;;;;;;;;5135139;27;20482;-68
2022/06/17 10:38:32;;;;;;;4.53;3.50;;;;;;;;;;5134551;27;20443;-67
2022/06/17 10:40:59;;;;;;;3.43;2.80;;;;;;;;;;5135151;27;20431;-67
2022/06/17 10:43:32;;;;;;;4.07;2.60;;;;;;;;;;5134545;27;20526;-67
2022/06/17 10:45:59;;;;;;;2.97;2.67;;;;;;;;;;5135175;27;20433;-67
2022/06/17 10:48:32;;;;;;;6.63;2.90;;;;;;;;;;5134805;27;20491;-67
2022/06/17 10:51:02;;;;;;;5.47;2.80;;;;;;;;;;5134131;27;20555;-67
2022/06/17 10:53:30;;;;;;;3.03;2.33;;;;;;;;;;5134629;27;20909;-67
2022/06/17 10:55:58;;;;;;;2.70;2.30;;;;;;;;;;5134443;27;20483;-67
2022/06/17 10:58:27;;;;;;;3.53;2.57;;;;;;;;;;5134284;27;20526;-67
2022/06/17 11:00:56;;;;;;;3.50;2.77;;;;;;;;;;5134144;27;20869;-67
2022/06/17 11:03:25;;;;;;;3.77;2.30;;;;;;;;;;5134895;27;20522;-67
2022/06/17 11:06:02;;;;;;;4.10;2.23;;;;;;;;;;5134412;27;20537;-67
2022/06/17 11:08:30;;;;;;;3.57;2.50;;;;;;;;;;5135072;27;20477;-67
2022/06/17 11:12:02;;;;;;;2.90;2.10;;;;;;;;;;5133354;27;20431;-67
2022/06/17 11:13:48;;;;;;;2.47;2.27;;;;;;;;;;5133581;27;20435;-67
2022/06/17 11:16:18;;;;;;;3.10;2.20;;;;;;;;;;5134512;27;20464;-67
2022/06/17 11:18:51;;;;;;;6.53;2.83;;;;;;;;;;5134010;27;20534;-68
2022/06/17 11:21:21;;;;;;;3.63;2.23;;;;;;;;;;5134215;28;20437;-69
2022/06/17 11:23:51;;;;;;;2.70;2.30;;;;;;;;;;5134482;28;20476;-68
2022/06/17 11:26:19;;;;;;;2.53;2.33;;;;;;;;;;5134047;28;20929;-68
2022/06/17 11:28:48;;;;;;;2.50;2.30;;;;;;;;;;5134561;28;20440;-68
2022/06/17 11:31:16;;;;;;;3.77;2.90;;;;;;;;;;5133217;28;20963;-68
2022/06/17 11:33:56;;;;;;;3.73;2.30;;;;;;;;;;5134327;28;20528;-68
2022/06/17 11:36:25;;;;;;;3.10;2.80;;;;;;;;;;5134649;28;20784;-68
2022/06/17 11:38:53;;;;;;;2.70;2.43;;;;;;;;;;5134000;28;20506;-68
2022/06/17 11:41:21;;;;;;;4.43;2.63;;;;;;;;;;5133921;28;20492;-69
2022/06/17 11:43:49;;;;;;;4.00;2.70;;;;;;;;;;5134205;28;20468;-69
2022/06/17 11:46:20;;;;;;;3.00;2.73;;;;;;;;;;5134160;28;20944;-69
2022/06/17 11:48:48;;;;;;;2.47;2.30;;;;;;;;;;5134760;28;20525;-69
2022/06/17 11:51:17;;;;;;;4.10;2.50;;;;;;;;;;5133588;28;20555;-68
2022/06/17 11:53:48;;;;;;;2.40;2.20;;;;;;;;;;5133138;28;20489;-68
2022/06/17 11:56:27;;;;;;;3.23;2.83;;;;;;;;;;5133002;28;20862;-68
2022/06/17 11:58:56;;;;;;;2.57;2.33;;;;;;;;;;5131367;28;20420;-68
2022/06/17 12:01:23;;;;;;;2.27;2.10;;;;;;;;;;5116779;28;20443;-68
2022/06/17 12:03:50;;;;;;;7.07;2.13;;;;;;;;;;5113323;28;20418;-68
2022/06/17 12:06:23;;;;;;;2.37;1.90;;;;;;;;;;5113151;28;20528;-68
2022/06/17 12:08:54;;;;;;;2.50;2.30;;;;;;;;;;5113241;28;20444;-69
2022/06/17 12:11:25;;;;;;;3.17;2.30;;;;;;;;;;5112853;28;20450;-69
2022/06/17 12:13:54;;;;;;;2.53;2.10;;;;;;;;;;5113351;28;20427;-69
2022/06/17 12:16:23;;;;;;;3.17;2.23;;;;;;;;;;5113266;28;20478;-69
2022/06/17 12:18:52;;;;;;;8.00;2.17;;;;;;;;;;5113632;28;20489;-68
2022/06/17 12:21:28;;;;;;;2.60;2.40;;;;;;;;;;5113567;28;20800;-68
2022/06/17 12:24:00;;;;;;;4.50;2.50;;;;;;;;;;5115396;28;20401;-69
2022/06/17 12:26:29;;;;;;;2.60;2.40;;;;;;;;;;5117179;28;20490;-68
2022/06/17 12:29:00;;;;;;;5.50;2.80;;;;;;;;;;5117123;28;20419;-68
2022/06/17 12:31:31;;;;;;;3.57;3.13;;;;;;;;;;5117143;28;20522;-68
2022/06/17 12:34:05;;;;;;;3.00;2.80;;;;;;;;;;5116955;28;20397;-66
2022/06/17 12:36:37;;;;;;;2.90;2.70;;;;;;;;;;5116558;28;20473;-67
2022/06/17 12:39:08;;;;;;;2.67;2.47;;;;;;;;;;5117013;28;20795;-67
2022/06/17 12:41:38;;;;;;;3.13;2.83;;;;;;;;;;5117048;28;20873;-66
2022/06/17 12:44:11;;;;;;;9.60;2.90;;;;;;;;;;5116840;28;20415;-67
2022/06/17 12:46:42;;;;;;;6.40;3.00;;;;;;;;;;5116324;28;20431;-66
2022/06/17 12:54:51;;;;;;;3.03;2.60;;;;;;;;;;5116572;28;20840;-67
2022/06/17 12:57:22;;;;;;;6.43;2.83;;;;;;;;;;5116181;28;20408;-67
2022/06/17 12:59:56;;;;;;;3.83;2.47;;;;;;;;;;5117019;28;20860;-67
2022/06/17 13:02:29;;;;;;;4.93;2.63;;;;;;;;;;5116091;28;20423;-67
2022/06/17 13:05:03;;;;;;;3.83;2.83;;;;;;;;;;5116110;28;20443;-67
2022/06/17 13:07:33;;;;;;;3.93;3.20;;;;;;;;;;5115938;28;20397;-67
2022/06/17 13:12:50;;;;;;;7.70;2.80;;;;;;;;;;5114897;28;20446;-67
2022/06/17 13:15:21;;;;;;;2.90;2.70;;;;;;;;;;5116159;28;20487;-67
2022/06/17 13:17:54;;;;;;;3.20;2.90;;;;;;;;;;5116239;28;20444;-67
2022/06/17 13:20:26;;;;;;;3.23;2.50;;;;;;;;;;5116430;28;20790;-68
2022/06/17 13:22:56;;;;;;;5.47;3.10;;;;;;;;;;5116408;28;21003;-68
2022/06/17 13:25:28;;;;;;;3.77;2.40;;;;;;;;;;5116190;28;20847;-67
2022/06/17 13:27:59;;;;;;;3.30;3.00;;;;;;;;;;5116504;28;20522;-67
2022/06/17 13:30:30;;;;;;;3.10;2.30;;;;;;;;;;5115642;28;20426;-67
2022/06/17 13:33:00;;;;;;;3.70;2.10;;;;;;;;;;5115546;28;20484;-67
2022/06/17 13:35:30;;;;;;;3.23;2.00;;;;;;;;;;5115309;28;20473;-67
2022/06/17 13:38:00;;;;;;;2.33;2.20;;;;;;;;;;5115565;28;20610;-68
2022/06/17 13:40:32;;;;;;;4.80;2.80;;;;;;;;;;5115352;28;20452;-67
2022/06/17 13:43:00;;;;;;;2.33;2.00;;;;;;;;;;5115334;28;20519;-67
2022/06/17 13:45:34;;;;;;;2.90;2.60;;;;;;;;;;5115367;28;20540;-68
2022/06/17 13:48:05;;;;;;;3.20;2.40;;;;;;;;;;5115751;28;20527;-67
2022/06/17 13:50:37;;;;;;;6.20;2.37;;;;;;;;;;5114990;28;20995;-68
2022/06/17 13:53:13;;;;;;;2.13;1.93;;;;;;;;;;5115375;28;20516;-67
2022/06/17 13:55:46;;;;;;;2.30;1.90;;;;;;;;;;5115919;28;20469;-67
2022/06/17 13:58:17;;;;;;;3.00;2.80;;;;;;;;;;5115378;28;20825;-68
2022/06/17 14:00:46;;;;;;;2.20;2.10;;;;;;;;;;5115664;28;20920;-68
2022/06/17 14:03:14;;;;;;;2.80;2.33;;;;;;;;;;5115109;28;20448;-68
2022/06/17 14:05:42;;;;;;;2.40;2.20;;;;;;;;;;5115500;28;20481;-68
2022/06/17 14:08:11;;;;;;;1.90;1.80;;;;;;;;;;5114974;28;20533;-68
2022/06/17 14:10:51;;;;;;;2.87;2.10;;;;;;;;;;5115187;28;20502;-69
2022/06/17 14:13:24;;;;;;;2.43;2.20;;;;;;;;;;5115005;28;20427;-68
2022/06/17 14:15:53;;;;;;;2.37;2.13;;;;;;;;;;5114578;28;20466;-68
2022/06/17 14:18:22;;;;;;;3.97;2.47;;;;;;;;;;5115056;28;20478;-68
2022/06/17 14:20:58;;;;;;;3.23;2.20;;;;;;;;;;5114583;28;20792;-68
2022/06/17 14:23:39;;;;;;;3.33;2.20;;;;;;;;;;5114484;28;20512;-68
2022/06/17 14:26:09;;;;;;;3.80;2.50;;;;;;;;;;5114933;28;20454;-68
2022/06/17 14:28:38;;;;;;;7.83;2.10;;;;;;;;;;5114602;28;20528;-68
2022/06/17 14:31:10;;;;;;;2.47;2.00;;;;;;;;;;5114574;28;20442;-68
2022/06/17 14:33:58;;;;;;;2.07;1.90;;;;;;;;;;5114537;28;20453;-68
2022/06/17 14:36:44;;;;;;;2.40;2.07;;;;;;;;;;5114168;28;20565;-68
2022/06/17 14:39:13;;;;;;;2.53;2.30;;;;;;;;;;5115043;28;20437;-68
2022/06/17 14:44:30;;;;;;;6.27;2.10;;;;;;;;;;5114536;28;20547;-68
2022/06/17 14:47:15;;;;;;;3.67;1.80;;;;;;;;;;5113300;28;20898;-68
2022/06/17 14:49:44;;;;;;;2.00;1.80;;;;;;;;;;5114143;28;20913;-69
2022/06/17 14:52:21;;;;;;;2.30;2.10;;;;;;;;;;5114282;28;20521;-68
2022/06/17 14:54:58;;;;;;;3.67;2.33;;;;;;;;;;5114238;28;20466;-68
2022/06/17 14:57:28;;;;;;;2.33;2.10;;;;;;;;;;5113804;28;20894;-68
2022/06/17 15:00:03;;;;;;;2.20;2.00;;;;;;;;;;5114621;28;20519;-69
2022/06/17 15:02:40;;;;;;;3.10;2.17;;;;;;;;;;5113781;28;20422;-68
2022/06/17 15:05:08;;;;;;;2.23;2.03;;;;;;;;;;5115479;28;20531;-66
2022/06/17 15:07:37;;;;;;;2.50;2.30;;;;;;;;;;5133146;27;20818;-66
2022/06/17 15:10:05;;;;;;;3.03;1.93;;;;;;;;;;5133588;27;20438;-68
2022/06/17 15:12:37;;;;;;;3.53;2.40;;;;;;;;;;5133615;27;20447;-68
2022/06/17 15:15:06;;;;;;;2.63;2.40;;;;;;;;;;5133345;27;20427;-69
2022/06/17 15:17:37;;;;;;;3.50;3.20;;;;;;;;;;5133520;27;20478;-67
2022/06/17 15:20:07;;;;;;;4.90;2.40;;;;;;;;;;5134506;28;20424;-67
2022/06/17 15:22:36;;;;;;;4.73;2.10;;;;;;;;;;5134098;28;20436;-67